sensor_id;sensor_type;location;lat;lon;timestamp;pressure;altitude;pressure_sealevel;temperature;humidity
18784;BME280;9520;50.954;6.968;2023-02-04T00:00:00;102518.50;;;16.12;44.93
18784;BME280;9520;50.954;6.968;2023-02-04T00:00:22;102519.44;;;16.08;45.10
18784;BME280;9520;50.954;6.968;2023-02-04T00:00:44;102513.19;;;16.09;45.16
18784;BME280;9520;50.954;6.968;2023-02-04T00:01:08;102524.72;;;16.13;45.38
18784;BME280;9520;50.954;6.968;2023-02-04T00:01:30;102528.28;;;16.13;45.27
18784;BME280;9520;50.954;6.968;2023-02-04T00:01:52;102526.47;;;16.15;45.03
18784;BME280;9520;50.954;6.968;2023-02-04T00:02:13;102522.03;;;16.14;45.29
18784;BME280;9520;50.954;6.968;2023-02-04T00:02:36;102530.94;;;16.10;45.37
18784;BME280;9520;50.954;6.968;2023-02-04T00:02:59;102522.97;;;16.10;45.33
18784;BME280;9520;50.954;6.968;2023-02-04T00:03:20;102527.44;;;16.08;45.42
18784;BME280;9520;50.954;6.968;2023-02-04T00:03:42;102522.09;;;16.04;45.27
18784;BME280;9520;50.954;6.968;2023-02-04T00:04:06;102530.09;;;16.05;45.38
18784;BME280;9520;50.954;6.968;2023-02-04T00:04:28;102523.88;;;16.06;45.17
18784;BME280;9520;50.954;6.968;2023-02-04T00:04:50;102522.09;;;16.08;45.31
18784;BME280;9520;50.954;6.968;2023-02-04T00:05:13;102520.28;;;16.10;45.38
18784;BME280;9520;50.954;6.968;2023-02-04T00:05:37;102520.28;;;16.10;45.23
18784;BME280;9520;50.954;6.968;2023-02-04T00:05:59;102521.19;;;16.11;45.07
18784;BME280;9520;50.954;6.968;2023-02-04T00:06:21;102524.72;;;16.11;45.16
18784;BME280;9520;50.954;6.968;2023-02-04T00:06:43;102530.06;;;16.13;45.23
18784;BME280;9520;50.954;6.968;2023-02-04T00:07:06;102524.69;;;16.14;45.23
18784;BME280;9520;50.954;6.968;2023-02-04T00:07:27;102526.50;;;16.09;45.19
18784;BME280;9520;50.954;6.968;2023-02-04T00:07:49;102527.44;;;16.07;45.31
18784;BME280;9520;50.954;6.968;2023-02-04T00:08:12;102525.63;;;16.10;45.45
18784;BME280;9520;50.954;6.968;2023-02-04T00:08:34;102525.63;;;16.10;45.36
18784;BME280;9520;50.954;6.968;2023-02-04T00:08:57;102529.16;;;16.12;45.11
18784;BME280;9520;50.954;6.968;2023-02-04T00:09:19;102530.06;;;16.13;45.25
18784;BME280;9520;50.954;6.968;2023-02-04T00:09:42;102528.25;;;16.15;45.19
18784;BME280;9520;50.954;6.968;2023-02-04T00:10:05;102527.34;;;16.14;45.16
18784;BME280;9520;50.954;6.968;2023-02-04T00:10:28;102525.63;;;16.13;45.35
18784;BME280;9520;50.954;6.968;2023-02-04T00:10:50;102530.00;;;16.14;45.14
18784;BME280;9520;50.954;6.968;2023-02-04T00:11:15;102534.44;;;16.15;45.16
18784;BME280;9520;50.954;6.968;2023-02-04T00:11:39;102530.06;;;16.11;45.37
18784;BME280;9520;50.954;6.968;2023-02-04T00:12:00;102530.94;;;16.09;45.15
18784;BME280;9520;50.954;6.968;2023-02-04T00:12:22;102525.63;;;16.09;45.10
18784;BME280;9520;50.954;6.968;2023-02-04T00:12:45;102530.06;;;16.10;45.02
18784;BME280;9520;50.954;6.968;2023-02-04T00:13:07;102534.50;;;16.12;45.33
18784;BME280;9520;50.954;6.968;2023-02-04T00:13:29;102530.94;;;16.13;45.18
18784;BME280;9520;50.954;6.968;2023-02-04T00:13:51;102527.34;;;16.16;45.08
18784;BME280;9520;50.954;6.968;2023-02-04T00:14:16;102533.56;;;16.15;45.21
18784;BME280;9520;50.954;6.968;2023-02-04T00:14:38;102542.44;;;16.15;45.13
18784;BME280;9520;50.954;6.968;2023-02-04T00:15:02;102537.13;;;16.15;45.02
18784;BME280;9520;50.954;6.968;2023-02-04T00:15:24;102528.28;;;16.12;45.21
18784;BME280;9520;50.954;6.968;2023-02-04T00:15:47;102538.88;;;16.15;45.13
18784;BME280;9520;50.954;6.968;2023-02-04T00:16:09;102540.66;;;16.16;45.04
18784;BME280;9520;50.954;6.968;2023-02-04T00:16:30;102538.00;;;16.14;45.00
18784;BME280;9520;50.954;6.968;2023-02-04T00:16:52;102540.69;;;16.11;45.07
18784;BME280;9520;50.954;6.968;2023-02-04T00:17:15;102543.38;;;16.11;45.29
18784;BME280;9520;50.954;6.968;2023-02-04T00:17:37;102500.94;;;15.90;45.40
18784;BME280;9520;50.954;6.968;2023-02-04T00:17:59;102538.03;;;16.11;45.25
18784;BME280;9520;50.954;6.968;2023-02-04T00:18:23;102537.19;;;16.05;45.14
18784;BME280;9520;50.954;6.968;2023-02-04T00:18:45;102544.38;;;15.98;45.24
18784;BME280;9520;50.954;6.968;2023-02-04T00:19:09;102541.72;;;15.98;45.47
18784;BME280;9520;50.954;6.968;2023-02-04T00:19:32;102545.22;;;16.00;45.51
18784;BME280;9520;50.954;6.968;2023-02-04T00:19:55;102545.22;;;16.00;45.51
18784;BME280;9520;50.954;6.968;2023-02-04T00:20:17;102552.28;;;16.04;45.31
18784;BME280;9520;50.954;6.968;2023-02-04T00:20:41;102533.72;;;15.96;45.15
18784;BME280;9520;50.954;6.968;2023-02-04T00:21:03;102549.63;;;16.07;45.15
18784;BME280;9520;50.954;6.968;2023-02-04T00:21:25;102535.50;;;15.97;45.35
18784;BME280;9520;50.954;6.968;2023-02-04T00:21:49;102553.19;;;16.00;45.23
18784;BME280;9520;50.954;6.968;2023-02-04T00:22:11;102555.81;;;16.05;45.10
18784;BME280;9520;50.954;6.968;2023-02-04T00:22:33;102552.31;;;16.03;45.43
18784;BME280;9520;50.954;6.968;2023-02-04T00:22:55;102547.88;;;16.03;45.35
18784;BME280;9520;50.954;6.968;2023-02-04T00:23:17;102546.94;;;16.04;45.18
18784;BME280;9520;50.954;6.968;2023-02-04T00:23:39;102554.94;;;16.06;45.23
18784;BME280;9520;50.954;6.968;2023-02-04T00:24:03;102551.41;;;16.04;45.30
18784;BME280;9520;50.954;6.968;2023-02-04T00:24:25;102554.97;;;16.01;45.20
18784;BME280;9520;50.954;6.968;2023-02-04T00:24:47;102555.00;;;15.96;45.25
18784;BME280;9520;50.954;6.968;2023-02-04T00:25:11;102554.13;;;15.97;45.33
18784;BME280;9520;50.954;6.968;2023-02-04T00:25:32;102553.25;;;15.97;45.49
18784;BME280;9520;50.954;6.968;2023-02-04T00:25:55;102547.88;;;16.00;45.33
18784;BME280;9520;50.954;6.968;2023-02-04T00:26:17;102523.16;;;15.84;45.30
18784;BME280;9520;50.954;6.968;2023-02-04T00:26:40;102552.31;;;15.99;45.23
18784;BME280;9520;50.954;6.968;2023-02-04T00:27:01;102551.44;;;16.01;45.35
18784;BME280;9520;50.954;6.968;2023-02-04T00:27:23;102541.72;;;15.96;45.40
18784;BME280;9520;50.954;6.968;2023-02-04T00:27:45;102552.28;;;16.04;45.29
18784;BME280;9520;50.954;6.968;2023-02-04T00:28:08;102554.06;;;16.08;45.33
18784;BME280;9520;50.954;6.968;2023-02-04T00:28:30;102557.59;;;16.07;45.12
18784;BME280;9520;50.954;6.968;2023-02-04T00:28:52;102558.44;;;16.09;45.18
18784;BME280;9520;50.954;6.968;2023-02-04T00:29:14;102558.44;;;16.11;45.24
18784;BME280;9520;50.954;6.968;2023-02-04T00:29:37;102560.22;;;16.10;45.12
18784;BME280;9520;50.954;6.968;2023-02-04T00:29:58;102554.00;;;16.11;45.11
18784;BME280;9520;50.954;6.968;2023-02-04T00:30:20;102558.44;;;16.12;44.95
18784;BME280;9520;50.954;6.968;2023-02-04T00:30:43;102552.22;;;16.13;45.19
18784;BME280;9520;50.954;6.968;2023-02-04T00:31:06;102559.31;;;16.14;45.15
18784;BME280;9520;50.954;6.968;2023-02-04T00:31:28;102546.03;;;16.10;45.04
18784;BME280;9520;50.954;6.968;2023-02-04T00:31:51;102559.34;;;16.11;45.09
18784;BME280;9520;50.954;6.968;2023-02-04T00:32:14;102555.81;;;16.08;44.96
18784;BME280;9520;50.954;6.968;2023-02-04T00:32:40;102557.56;;;16.12;45.00
18784;BME280;9520;50.954;6.968;2023-02-04T00:33:02;102559.34;;;16.11;45.04
18784;BME280;9520;50.954;6.968;2023-02-04T00:33:24;102561.06;;;16.15;44.77
18784;BME280;9520;50.954;6.968;2023-02-04T00:33:46;102562.00;;;16.11;45.12
18784;BME280;9520;50.954;6.968;2023-02-04T00:34:11;102557.59;;;16.07;45.33
18784;BME280;9520;50.954;6.968;2023-02-04T00:34:33;102565.63;;;16.03;45.05
18784;BME280;9520;50.954;6.968;2023-02-04T00:34:56;102564.78;;;15.96;45.14
18784;BME280;9520;50.954;6.968;2023-02-04T00:35:19;102564.78;;;15.96;45.26
18784;BME280;9520;50.954;6.968;2023-02-04T00:35:42;102570.97;;;15.98;44.98
18784;BME280;9520;50.954;6.968;2023-02-04T00:36:04;102570.13;;;15.91;45.16
18784;BME280;9520;50.954;6.968;2023-02-04T00:36:26;102571.88;;;15.94;45.23
18784;BME280;9520;50.954;6.968;2023-02-04T00:36:48;102569.28;;;15.88;45.27
18784;BME280;9520;50.954;6.968;2023-02-04T00:37:10;102570.97;;;15.95;45.55
18784;BME280;9520;50.954;6.968;2023-02-04T00:37:33;102572.78;;;15.90;45.23
18784;BME280;9520;50.954;6.968;2023-02-04T00:37:55;102568.34;;;15.92;45.50
18784;BME280;9520;50.954;6.968;2023-02-04T00:38:18;102568.34;;;15.89;45.53
18784;BME280;9520;50.954;6.968;2023-02-04T00:38:40;102572.78;;;15.91;45.55
18784;BME280;9520;50.954;6.968;2023-02-04T00:39:02;102572.78;;;15.90;45.11
18784;BME280;9520;50.954;6.968;2023-02-04T00:39:26;102566.59;;;15.89;45.35
18784;BME280;9520;50.954;6.968;2023-02-04T00:39:48;102575.47;;;15.90;45.45
18784;BME280;9520;50.954;6.968;2023-02-04T00:40:10;102563.94;;;15.88;45.44
18784;BME280;9520;50.954;6.968;2023-02-04T00:40:33;102563.09;;;15.83;45.13
18784;BME280;9520;50.954;6.968;2023-02-04T00:40:55;102515.38;;;15.55;45.23
18784;BME280;9520;50.954;6.968;2023-02-04T00:41:17;102548.94;;;15.78;45.30
18784;BME280;9520;50.954;6.968;2023-02-04T00:41:39;102566.63;;;15.88;45.10
18784;BME280;9520;50.954;6.968;2023-02-04T00:42:03;102571.91;;;15.91;45.12
18784;BME280;9520;50.954;6.968;2023-02-04T00:42:26;102563.91;;;15.89;45.36
18784;BME280;9520;50.954;6.968;2023-02-04T00:42:48;102561.25;;;15.89;45.52
18784;BME280;9520;50.954;6.968;2023-02-04T00:43:11;102558.63;;;15.86;45.55
18784;BME280;9520;50.954;6.968;2023-02-04T00:43:33;102563.03;;;15.89;45.53
18784;BME280;9520;50.954;6.968;2023-02-04T00:43:55;102558.59;;;15.91;45.40
18784;BME280;9520;50.954;6.968;2023-02-04T00:44:18;102550.66;;;15.86;45.45
18784;BME280;9520;50.954;6.968;2023-02-04T00:44:39;102551.50;;;15.91;45.50
18784;BME280;9520;50.954;6.968;2023-02-04T00:45:02;102558.59;;;15.91;45.49
18784;BME280;9520;50.954;6.968;2023-02-04T00:45:24;102556.81;;;15.90;45.22
18784;BME280;9520;50.954;6.968;2023-02-04T00:45:46;102558.63;;;15.88;45.35
18784;BME280;9520;50.954;6.968;2023-02-04T00:46:07;102553.28;;;15.89;45.13
18784;BME280;9520;50.954;6.968;2023-02-04T00:46:31;102555.06;;;15.90;45.07
18784;BME280;9520;50.954;6.968;2023-02-04T00:46:52;102558.59;;;15.92;45.18
18784;BME280;9520;50.954;6.968;2023-02-04T00:47:14;102562.16;;;15.93;45.10
18784;BME280;9520;50.954;6.968;2023-02-04T00:47:37;102552.38;;;15.90;45.05
18784;BME280;9520;50.954;6.968;2023-02-04T00:48:00;102562.13;;;15.94;45.03
18784;BME280;9520;50.954;6.968;2023-02-04T00:48:22;102562.13;;;15.97;45.05
18784;BME280;9520;50.954;6.968;2023-02-04T00:48:47;102562.13;;;15.97;45.26
18784;BME280;9520;50.954;6.968;2023-02-04T00:49:11;102564.78;;;15.94;45.20
18784;BME280;9520;50.954;6.968;2023-02-04T00:49:34;102550.56;;;15.94;45.08
18784;BME280;9520;50.954;6.968;2023-02-04T00:49:56;102564.78;;;15.96;45.14
18784;BME280;9520;50.954;6.968;2023-02-04T00:50:18;102560.34;;;15.96;45.24
18784;BME280;9520;50.954;6.968;2023-02-04T00:50:39;102560.34;;;15.98;45.03
18784;BME280;9520;50.954;6.968;2023-02-04T00:51:02;102554.16;;;15.90;45.33
18784;BME280;9520;50.954;6.968;2023-02-04T00:51:26;102560.38;;;15.92;45.29
18784;BME280;9520;50.954;6.968;2023-02-04T00:51:48;102555.16;;;15.77;45.16
18784;BME280;9520;50.954;6.968;2023-02-04T00:52:09;102558.59;;;15.89;45.29
18784;BME280;9520;50.954;6.968;2023-02-04T00:52:32;102562.16;;;15.90;45.30
18784;BME280;9520;50.954;6.968;2023-02-04T00:52:54;102565.69;;;15.90;45.24
18784;BME280;9520;50.954;6.968;2023-02-04T00:53:16;102566.59;;;15.89;45.30
18784;BME280;9520;50.954;6.968;2023-02-04T00:53:38;102568.34;;;15.90;45.26
18784;BME280;9520;50.954;6.968;2023-02-04T00:54:00;102570.13;;;15.93;45.32
18784;BME280;9520;50.954;6.968;2023-02-04T00:54:23;102572.75;;;15.97;45.38
18784;BME280;9520;50.954;6.968;2023-02-04T00:54:45;102564.78;;;15.96;45.13
18784;BME280;9520;50.954;6.968;2023-02-04T00:55:07;102571.88;;;15.97;45.02
18784;BME280;9520;50.954;6.968;2023-02-04T00:55:30;102576.31;;;15.96;44.93
18784;BME280;9520;50.954;6.968;2023-02-04T00:55:53;102561.28;;;15.86;45.08
18784;BME280;9520;50.954;6.968;2023-02-04T00:56:16;102571.88;;;15.94;45.13
18784;BME280;9520;50.954;6.968;2023-02-04T00:56:40;102570.13;;;15.90;44.96
18784;BME280;9520;50.954;6.968;2023-02-04T00:57:01;102564.81;;;15.90;45.00
18784;BME280;9520;50.954;6.968;2023-02-04T00:57:24;102569.22;;;15.94;45.17
18784;BME280;9520;50.954;6.968;2023-02-04T00:57:46;102559.53;;;15.87;45.05
18784;BME280;9520;50.954;6.968;2023-02-04T00:58:08;102570.13;;;15.93;44.84
18784;BME280;9520;50.954;6.968;2023-02-04T00:58:30;102569.22;;;15.94;44.78
18784;BME280;9520;50.954;6.968;2023-02-04T00:58:53;102570.13;;;15.91;45.03
18784;BME280;9520;50.954;6.968;2023-02-04T00:59:14;102559.56;;;15.82;45.13
18784;BME280;9520;50.954;6.968;2023-02-04T00:59:37;102563.09;;;15.81;44.83
18784;BME280;9520;50.954;6.968;2023-02-04T00:59:59;102569.31;;;15.79;45.10
18784;BME280;9520;50.954;6.968;2023-02-04T01:00:21;102569.31;;;15.79;45.15
18784;BME280;9520;50.954;6.968;2023-02-04T01:00:46;102572.91;;;15.72;44.82
18784;BME280;9520;50.954;6.968;2023-02-04T01:01:08;102566.72;;;15.73;44.95
18784;BME280;9520;50.954;6.968;2023-02-04T01:01:30;102559.66;;;15.69;44.93
18784;BME280;9520;50.954;6.968;2023-02-04T01:01:51;102570.22;;;15.75;45.23
18784;BME280;9520;50.954;6.968;2023-02-04T01:02:16;102570.25;;;15.72;45.14
18784;BME280;9520;50.954;6.968;2023-02-04T01:02:39;102557.94;;;15.59;45.24
18784;BME280;9520;50.954;6.968;2023-02-04T01:03:01;102576.47;;;15.71;45.12
18784;BME280;9520;50.954;6.968;2023-02-04T01:03:24;102571.16;;;15.74;45.25
18784;BME280;9520;50.954;6.968;2023-02-04T01:03:46;102573.78;;;15.77;45.25
18784;BME280;9520;50.954;6.968;2023-02-04T01:04:09;102565.75;;;15.80;45.06
18784;BME280;9520;50.954;6.968;2023-02-04T01:04:35;102568.38;;;15.84;44.82
18784;BME280;9520;50.954;6.968;2023-02-04T01:04:58;102569.28;;;15.85;44.71
18784;BME280;9520;50.954;6.968;2023-02-04T01:05:20;102560.38;;;15.89;45.00
18784;BME280;9520;50.954;6.968;2023-02-04T01:05:42;102568.44;;;15.83;45.05
18784;BME280;9520;50.954;6.968;2023-02-04T01:06:04;102549.88;;;15.74;45.01
18784;BME280;9520;50.954;6.968;2023-02-04T01:06:28;102562.22;;;15.81;44.96
18784;BME280;9520;50.954;6.968;2023-02-04T01:06:51;102569.25;;;15.91;44.83
18784;BME280;9520;50.954;6.968;2023-02-04T01:07:13;102564.84;;;15.87;44.74
18784;BME280;9520;50.954;6.968;2023-02-04T01:07:35;102568.34;;;15.92;44.61
18784;BME280;9520;50.954;6.968;2023-02-04T01:07:57;102569.22;;;15.94;44.63
18784;BME280;9520;50.954;6.968;2023-02-04T01:08:20;102577.22;;;15.91;44.68
18784;BME280;9520;50.954;6.968;2023-02-04T01:08:42;102577.22;;;15.91;44.69
18784;BME280;9520;50.954;6.968;2023-02-04T01:09:04;102582.53;;;15.94;44.86
18784;BME280;9520;50.954;6.968;2023-02-04T01:09:26;102574.56;;;15.91;44.58
18784;BME280;9520;50.954;6.968;2023-02-04T01:09:48;102574.56;;;15.92;44.85
18784;BME280;9520;50.954;6.968;2023-02-04T01:10:11;102548.91;;;15.81;44.62
18784;BME280;9520;50.954;6.968;2023-02-04T01:10:33;102577.19;;;15.94;44.58
18784;BME280;9520;50.954;6.968;2023-02-04T01:10:55;102575.41;;;15.94;44.63
18784;BME280;9520;50.954;6.968;2023-02-04T01:11:20;102573.66;;;15.98;44.46
18784;BME280;9520;50.954;6.968;2023-02-04T01:11:42;102573.69;;;15.90;44.78
18784;BME280;9520;50.954;6.968;2023-02-04T01:12:05;102553.34;;;15.80;44.59
18784;BME280;9520;50.954;6.968;2023-02-04T01:12:26;102571.03;;;15.93;44.68
18784;BME280;9520;50.954;6.968;2023-02-04T01:12:51;102567.47;;;15.91;44.80
18784;BME280;9520;50.954;6.968;2023-02-04T01:13:14;102576.34;;;15.93;44.73
18784;BME280;9520;50.954;6.968;2023-02-04T01:13:36;102572.75;;;15.94;44.79
18784;BME280;9520;50.954;6.968;2023-02-04T01:13:59;102574.56;;;15.92;44.97
18784;BME280;9520;50.954;6.968;2023-02-04T01:14:22;102576.34;;;15.93;44.90
18784;BME280;9520;50.954;6.968;2023-02-04T01:14:45;102575.41;;;15.94;44.81
18784;BME280;9520;50.954;6.968;2023-02-04T01:15:08;102572.75;;;15.96;44.73
18784;BME280;9520;50.954;6.968;2023-02-04T01:15:30;102584.28;;;15.96;44.91
18784;BME280;9520;50.954;6.968;2023-02-04T01:15:52;102588.72;;;15.94;44.80
18784;BME280;9520;50.954;6.968;2023-02-04T01:16:15;102586.06;;;15.97;44.92
18784;BME280;9520;50.954;6.968;2023-02-04T01:16:38;102540.06;;;15.74;44.96
18784;BME280;9520;50.954;6.968;2023-02-04T01:16:59;102538.31;;;15.76;44.93
18784;BME280;9520;50.954;6.968;2023-02-04T01:17:22;102579.81;;;16.03;45.01
18784;BME280;9520;50.954;6.968;2023-02-04T01:17:44;102589.59;;;16.01;45.08
18784;BME280;9520;50.954;6.968;2023-02-04T01:18:07;102585.16;;;16.02;44.87
18784;BME280;9520;50.954;6.968;2023-02-04T01:18:29;102586.91;;;16.03;44.82
18784;BME280;9520;50.954;6.968;2023-02-04T01:18:51;102588.69;;;16.02;44.58
18784;BME280;9520;50.954;6.968;2023-02-04T01:19:13;102586.03;;;16.02;44.70
18784;BME280;9520;50.954;6.968;2023-02-04T01:19:39;102588.69;;;16.01;45.00
18784;BME280;9520;50.954;6.968;2023-02-04T01:20:00;102593.13;;;16.00;45.02
18784;BME280;9520;50.954;6.968;2023-02-04T01:20:23;102588.69;;;16.02;44.84
18784;BME280;9520;50.954;6.968;2023-02-04T01:20:45;102585.16;;;16.00;44.85
18784;BME280;9520;50.954;6.968;2023-02-04T01:21:10;102589.63;;;15.98;44.85
18784;BME280;9520;50.954;6.968;2023-02-04T01:21:32;102592.28;;;15.98;44.95
18784;BME280;9520;50.954;6.968;2023-02-04T01:21:53;102596.72;;;15.96;44.84
18784;BME280;9520;50.954;6.968;2023-02-04T01:22:22;102598.56;;;15.86;45.21
18784;BME280;9520;50.954;6.968;2023-02-04T01:22:46;102601.25;;;15.82;45.15
18784;BME280;9520;50.954;6.968;2023-02-04T01:23:08;102596.78;;;15.84;44.94
18784;BME280;9520;50.954;6.968;2023-02-04T01:23:30;102597.69;;;15.83;45.14
18784;BME280;9520;50.954;6.968;2023-02-04T01:23:52;102570.28;;;15.69;45.13
18784;BME280;9520;50.954;6.968;2023-02-04T01:24:16;102586.16;;;15.82;45.10
18784;BME280;9520;50.954;6.968;2023-02-04T01:24:56;102597.66;;;15.87;45.27
18784;BME280;9520;50.954;6.968;2023-02-04T01:25:35;102574.66;;;15.74;45.36
18784;BME280;9520;50.954;6.968;2023-02-04T01:26:00;102600.31;;;15.86;45.29
18784;BME280;9520;50.954;6.968;2023-02-04T01:26:22;102589.69;;;15.84;45.17
18784;BME280;9520;50.954;6.968;2023-02-04T01:26:43;102595.03;;;15.81;45.09
18784;BME280;9520;50.954;6.968;2023-02-04T01:27:05;102602.13;;;15.79;45.07
18784;BME280;9520;50.954;6.968;2023-02-04T01:27:27;102592.38;;;15.81;45.23
18784;BME280;9520;50.954;6.968;2023-02-04T01:27:49;102593.22;;;15.85;44.98
18784;BME280;9520;50.954;6.968;2023-02-04T01:28:13;102595.88;;;15.85;45.14
18784;BME280;9520;50.954;6.968;2023-02-04T01:28:35;102597.66;;;15.84;45.08
18784;BME280;9520;50.954;6.968;2023-02-04T01:28:58;102597.66;;;15.84;45.09
18784;BME280;9520;50.954;6.968;2023-02-04T01:29:20;102595.91;;;15.83;45.09
18784;BME280;9520;50.954;6.968;2023-02-04T01:29:44;102595.91;;;15.82;45.21
18784;BME280;9520;50.954;6.968;2023-02-04T01:30:07;102594.13;;;15.84;45.25
18784;BME280;9520;50.954;6.968;2023-02-04T01:30:29;102603.91;;;15.82;44.86
18784;BME280;9520;50.954;6.968;2023-02-04T01:30:52;102591.47;;;15.81;45.12
18784;BME280;9520;50.954;6.968;2023-02-04T01:31:14;102603.88;;;15.86;45.04
18784;BME280;9520;50.954;6.968;2023-02-04T01:31:36;102598.56;;;15.88;44.96
18784;BME280;9520;50.954;6.968;2023-02-04T01:31:58;102595.84;;;15.92;45.17
18784;BME280;9520;50.954;6.968;2023-02-04T01:32:20;102600.28;;;15.89;45.23
18784;BME280;9520;50.954;6.968;2023-02-04T01:32:43;102595.84;;;15.89;45.34
18784;BME280;9520;50.954;6.968;2023-02-04T01:33:05;102594.09;;;15.90;45.07
18784;BME280;9520;50.954;6.968;2023-02-04T01:33:28;102521.56;;;15.50;45.14
18784;BME280;9520;50.954;6.968;2023-02-04T01:33:50;102592.34;;;15.84;45.19
18784;BME280;9520;50.954;6.968;2023-02-04T01:34:13;102598.56;;;15.85;45.10
18784;BME280;9520;50.954;6.968;2023-02-04T01:34:35;102580.84;;;15.79;44.97
18784;BME280;9520;50.954;6.968;2023-02-04T01:34:58;102597.66;;;15.87;45.32
18784;BME280;9520;50.954;6.968;2023-02-04T01:35:19;102590.53;;;15.89;45.29
18784;BME280;9520;50.954;6.968;2023-02-04T01:35:42;102597.63;;;15.89;45.06
18784;BME280;9520;50.954;6.968;2023-02-04T01:36:06;102597.63;;;15.89;45.07
18784;BME280;9520;50.954;6.968;2023-02-04T01:36:29;102594.97;;;15.92;45.16
18784;BME280;9520;50.954;6.968;2023-02-04T01:36:51;102598.53;;;15.91;45.01
18784;BME280;9520;50.954;6.968;2023-02-04T01:37:12;102594.97;;;15.90;44.91
18784;BME280;9520;50.954;6.968;2023-02-04T01:37:35;102595.84;;;15.91;45.18
18784;BME280;9520;50.954;6.968;2023-02-04T01:37:57;102591.44;;;15.90;44.83
18784;BME280;9520;50.954;6.968;2023-02-04T01:38:18;102601.16;;;15.94;44.95
18784;BME280;9520;50.954;6.968;2023-02-04T01:38:40;102595.81;;;15.94;44.91
18784;BME280;9520;50.954;6.968;2023-02-04T01:39:03;102600.25;;;15.95;44.98
18784;BME280;9520;50.954;6.968;2023-02-04T01:39:25;102603.81;;;15.97;45.12
18784;BME280;9520;50.954;6.968;2023-02-04T01:39:47;102607.31;;;15.99;44.95
18784;BME280;9520;50.954;6.968;2023-02-04T01:40:10;102598.50;;;15.97;44.84
18784;BME280;9520;50.954;6.968;2023-02-04T01:40:31;102604.69;;;15.96;44.89
18784;BME280;9520;50.954;6.968;2023-02-04T01:40:54;102603.81;;;15.95;44.91
18784;BME280;9520;50.954;6.968;2023-02-04T01:41:17;102583.47;;;15.87;45.00
18784;BME280;9520;50.954;6.968;2023-02-04T01:41:39;102604.69;;;15.96;45.01
18784;BME280;9520;50.954;6.968;2023-02-04T01:42:01;102598.50;;;15.94;45.04
18784;BME280;9520;50.954;6.968;2023-02-04T01:42:24;102602.06;;;15.93;45.26
18784;BME280;9520;50.954;6.968;2023-02-04T01:43:24;102605.63;;;15.90;45.15
18784;BME280;9520;50.954;6.968;2023-02-04T01:43:47;102574.66;;;15.74;44.95
18784;BME280;9520;50.954;6.968;2023-02-04T01:44:09;102604.75;;;15.87;45.00
18784;BME280;9520;50.954;6.968;2023-02-04T01:44:31;102608.31;;;15.86;45.02
18784;BME280;9520;50.954;6.968;2023-02-04T01:44:53;102614.53;;;15.86;44.99
18784;BME280;9520;50.954;6.968;2023-02-04T01:45:18;102616.28;;;15.87;44.91
18784;BME280;9520;50.954;6.968;2023-02-04T01:45:40;102585.31;;;15.76;45.10
18784;BME280;9520;50.954;6.968;2023-02-04T01:46:02;102569.41;;;15.67;45.00
18784;BME280;9520;50.954;6.968;2023-02-04T01:46:24;102607.41;;;15.90;45.27
18784;BME280;9520;50.954;6.968;2023-02-04T01:46:47;102606.53;;;15.88;45.16
18784;BME280;9520;50.954;6.968;2023-02-04T01:47:10;102609.16;;;15.89;45.14
18784;BME280;9520;50.954;6.968;2023-02-04T01:47:33;102618.03;;;15.90;45.13
18784;BME280;9520;50.954;6.968;2023-02-04T01:47:55;102609.16;;;15.92;45.27
18784;BME280;9520;50.954;6.968;2023-02-04T01:48:19;102615.38;;;15.91;45.14
18784;BME280;9520;50.954;6.968;2023-02-04T01:48:42;102614.50;;;15.92;45.18
18784;BME280;9520;50.954;6.968;2023-02-04T01:49:05;102610.06;;;15.93;45.01
18784;BME280;9520;50.954;6.968;2023-02-04T01:49:28;102607.44;;;15.87;45.16
18784;BME280;9520;50.954;6.968;2023-02-04T01:49:53;102608.28;;;15.90;45.21
18784;BME280;9520;50.954;6.968;2023-02-04T01:50:21;102617.19;;;15.88;45.38
18784;BME280;9520;50.954;6.968;2023-02-04T01:50:43;102623.41;;;15.87;45.38
18784;BME280;9520;50.954;6.968;2023-02-04T01:51:07;102613.63;;;15.84;45.30
18784;BME280;9520;50.954;6.968;2023-02-04T01:51:30;102618.06;;;15.84;45.52
18784;BME280;9520;50.954;6.968;2023-02-04T01:51:52;102613.66;;;15.83;45.15
18784;BME280;9520;50.954;6.968;2023-02-04T01:52:16;102623.38;;;15.84;45.37
18784;BME280;9520;50.954;6.968;2023-02-04T01:52:38;102606.59;;;15.74;45.33
18784;BME280;9520;50.954;6.968;2023-02-04T01:53:01;102615.47;;;15.75;45.27
18784;BME280;9520;50.954;6.968;2023-02-04T01:53:24;102620.75;;;15.81;45.23
18784;BME280;9520;50.954;6.968;2023-02-04T01:53:47;102606.63;;;15.70;45.21
18784;BME280;9520;50.954;6.968;2023-02-04T01:54:11;102616.31;;;15.81;45.37
18784;BME280;9520;50.954;6.968;2023-02-04T01:54:34;102619.00;;;15.83;45.27
18784;BME280;9520;50.954;6.968;2023-02-04T01:54:56;102626.97;;;15.81;45.47
18784;BME280;9520;50.954;6.968;2023-02-04T01:55:23;102616.38;;;15.74;45.45
18784;BME280;9520;50.954;6.968;2023-02-04T01:55:47;102621.66;;;15.80;45.61
18784;BME280;9520;50.954;6.968;2023-02-04T01:56:14;102625.19;;;15.82;45.54
18784;BME280;9520;50.954;6.968;2023-02-04T01:56:37;102611.91;;;15.74;45.49
18784;BME280;9520;50.954;6.968;2023-02-04T01:57:00;102634.94;;;15.81;45.33
18784;BME280;9520;50.954;6.968;2023-02-04T01:57:27;102618.13;;;15.78;45.55
18784;BME280;9520;50.954;6.968;2023-02-04T01:57:49;102626.97;;;15.83;45.57
18784;BME280;9520;50.954;6.968;2023-02-04T01:58:13;102624.28;;;15.86;45.50
18784;BME280;9520;50.954;6.968;2023-02-04T01:58:37;102628.72;;;15.87;45.33
18784;BME280;9520;50.954;6.968;2023-02-04T01:59:00;102624.31;;;15.83;45.36
18784;BME280;9520;50.954;6.968;2023-02-04T01:59:22;102625.19;;;15.82;45.14
18784;BME280;9520;50.954;6.968;2023-02-04T01:59:46;102630.50;;;15.82;45.38
18784;BME280;9520;50.954;6.968;2023-02-04T02:00:13;102621.66;;;15.83;45.19
18784;BME280;9520;50.954;6.968;2023-02-04T02:00:37;102630.53;;;15.83;45.26
18784;BME280;9520;50.954;6.968;2023-02-04T02:00:59;102627.81;;;15.85;45.22